Time;durP1;ratioP1;P1;durP2;ratioP2;P2;SDS_P1;SDS_P2;PMS_P1;PMS_P2;Temp;Humidity;BMP_temperature;BMP_pressure;BME280_temperature;BME280_humidity;BME280_pressure;Samples;Min_cycle;Max_cycle;Signal;HPM_P1;HPM_P2
2021/07/27 00:00:16;;;;;;;15.50;7.63;;;;;;;21.61;77.37;98045.02;125886;1096;26254;-80
2021/07/27 00:03:04;;;;;;;15.03;8.55;;;;;;;21.37;77.81;98045.51;125773;1096;22835;-80
2021/07/27 00:05:33;;;;;;;11.60;8.73;;;;;;;21.19;78.81;98055.74;125837;1095;22804;-80
2021/07/27 00:08:00;;;;;;;13.28;7.98;;;;;;;21.09;79.08;98058.86;125987;1096;22874;-80
2021/07/27 00:10:41;;;;;;;14.20;8.63;;;;;;;21.07;79.60;98055.59;125766;1096;26254;-80
2021/07/27 00:13:08;;;;;;;12.98;7.63;;;;;;;21.11;79.94;98077.92;125741;1096;23466;-80
2021/07/27 00:15:52;;;;;;;12.13;7.53;;;;;;;21.07;80.29;98110.98;125845;1096;23684;-81
2021/07/27 00:18:20;;;;;;;10.00;7.83;;;;;;;20.97;80.12;98109.31;125783;1096;26044;-81
2021/07/27 00:20:50;;;;;;;10.83;8.03;;;;;;;20.89;80.42;98135.00;125786;1096;22803;-81
2021/07/27 00:23:20;;;;;;;11.00;7.13;;;;;;;20.82;80.77;98162.34;125767;1096;25964;-81
2021/07/27 00:25:48;;;;;;;11.48;7.85;;;;;;;20.73;81.86;98172.56;125694;1096;23662;-80
2021/07/27 00:28:15;;;;;;;10.00;6.70;;;;;;;20.57;82.14;98172.13;125839;1096;22889;-80
2021/07/27 00:30:46;;;;;;;6.83;3.98;;;;;;;20.28;79.03;98182.55;125699;1096;23076;-80
2021/07/27 00:33:13;;;;;;;8.75;4.70;;;;;;;20.05;79.54;98205.81;125804;1095;22774;-80
2021/07/27 00:39:47;;;;;;;9.73;5.27;;;;;;;19.72;81.05;98162.63;125802;1096;24419;-81
2021/07/27 00:42:16;;;;;;;13.95;6.03;;;;;;;19.69;81.51;98154.95;125987;1096;27198;-81
2021/07/27 00:44:44;;;;;;;8.18;4.60;;;;;;;19.66;81.17;98149.23;125510;1096;25963;-81
2021/07/27 00:47:11;;;;;;;6.35;5.05;;;;;;;19.66;81.23;98147.28;125444;1097;22777;-81
2021/07/27 00:49:38;;;;;;;6.33;4.23;;;;;;;19.67;81.32;98135.11;125572;1096;25847;-81
2021/07/27 00:52:07;;;;;;;7.55;4.65;;;;;;;19.63;81.36;98097.37;125455;1097;22832;-82
2021/07/27 00:54:35;;;;;;;5.95;3.88;;;;;;;19.54;80.93;98091.77;126529;1097;23001;-82
2021/07/27 00:57:03;;;;;;;6.85;4.33;;;;;;;19.50;81.35;98085.25;125706;1096;23399;-81
2021/07/27 00:59:30;;;;;;;6.70;4.68;;;;;;;19.48;81.57;98070.94;125941;1097;22800;-81
2021/07/27 01:01:57;;;;;;;7.33;4.33;;;;;;;19.46;81.38;98062.97;125825;1096;22811;-81
2021/07/27 01:04:24;;;;;;;8.18;4.20;;;;;;;19.42;81.58;98072.98;125828;1096;22837;-80
2021/07/27 01:06:51;;;;;;;6.18;3.53;;;;;;;19.37;81.54;98070.38;125762;1096;25884;-80
2021/07/27 01:09:33;;;;;;;9.50;3.87;;;;;;;19.31;81.69;98068.84;125737;1096;26277;-80
2021/07/27 01:12:03;;;;;;;6.15;3.68;;;;;;;19.30;81.42;98045.95;125734;1097;26699;-80
2021/07/27 01:14:30;;;;;;;6.30;3.75;;;;;;;19.27;81.53;98029.20;125729;1096;22778;-80
2021/07/27 01:16:56;;;;;;;5.55;3.53;;;;;;;19.25;81.34;98020.41;125752;1095;22806;-80
2021/07/27 01:19:45;;;;;;;5.48;3.83;;;;;;;19.22;81.47;98029.31;125839;1096;27271;-79
2021/07/27 01:39:25;;;;;;;6.08;4.25;;;;;;;19.37;82.90;98040.00;125804;1096;27473;-81
2021/07/27 01:42:14;;;;;;;6.07;4.00;;;;;;;19.39;82.83;98034.14;125696;1096;23052;-81
2021/07/27 01:44:44;;;;;;;4.88;3.60;;;;;;;19.39;82.92;98039.66;125831;1096;22778;-81
2021/07/27 01:47:19;;;;;;;5.80;3.48;;;;;;;19.46;83.02;98046.40;125789;1096;27208;-81
2021/07/27 01:49:47;;;;;;;7.13;3.98;;;;;;;19.50;83.09;98057.63;125880;1096;22769;-81
2021/07/27 01:52:15;;;;;;;7.18;4.30;;;;;;;19.57;83.11;98065.48;125794;1096;22777;-81
2021/07/27 01:54:57;;;;;;;8.00;4.80;;;;;;;19.58;82.70;98083.67;125716;1096;24338;-81
2021/07/27 01:57:28;;;;;;;5.43;4.20;;;;;;;19.63;83.10;98094.61;125846;1096;22803;-81
2021/07/27 01:59:58;;;;;;;7.23;3.90;;;;;;;19.65;82.80;98078.53;125814;1096;22785;-81
2021/07/27 02:02:40;;;;;;;7.93;5.07;;;;;;;19.65;82.38;98095.10;125740;1096;24636;-81
2021/07/27 02:05:08;;;;;;;8.50;4.95;;;;;;;19.67;82.68;98113.02;125714;1096;22776;-81
2021/07/27 02:07:38;;;;;;;6.98;4.85;;;;;;;19.69;82.81;98130.09;125801;1096;24459;-81
2021/07/27 02:10:08;;;;;;;8.08;4.65;;;;;;;19.65;82.56;98134.58;125906;1096;22782;-81
2021/07/27 02:12:38;;;;;;;7.83;5.00;;;;;;;19.58;82.47;98156.30;125959;1096;26258;-81
2021/07/27 02:15:06;;;;;;;6.43;4.83;;;;;;;19.56;83.17;98160.52;125774;1096;26255;-81
2021/07/27 02:17:34;;;;;;;7.98;5.08;;;;;;;19.54;83.28;98185.69;125770;1096;22855;-81
2021/07/27 02:20:02;;;;;;;6.85;5.15;;;;;;;19.55;83.49;98170.76;125750;1095;27307;-81
2021/07/27 02:22:32;;;;;;;6.15;4.70;;;;;;;19.50;83.31;98155.11;125830;1096;22906;-81
2021/07/27 02:24:59;;;;;;;5.45;4.90;;;;;;;19.49;83.64;98192.13;125780;1097;22788;-81
2021/07/27 02:27:27;;;;;;;8.63;4.65;;;;;;;19.56;83.88;98204.71;125854;1096;23256;-81
2021/07/27 02:29:54;;;;;;;7.17;4.20;;;;;;;19.60;83.51;98227.81;125795;1096;27170;-81
2021/07/27 02:32:21;;;;;;;6.28;5.03;;;;;;;19.59;83.67;98254.63;125754;1096;23724;-81
2021/07/27 02:34:47;;;;;;;6.98;5.80;;;;;;;19.57;83.83;98259.65;125767;1096;23037;-81
2021/07/27 02:37:15;;;;;;;8.10;5.55;;;;;;;19.53;84.05;98236.55;125839;1096;22794;-80
2021/07/27 02:39:57;;;;;;;10.03;5.73;;;;;;;19.54;84.14;98246.45;125569;1097;22877;-81
2021/07/27 02:42:23;;;;;;;8.58;6.08;;;;;;;19.54;84.22;98250.02;125503;1095;23047;-82
2021/07/27 02:44:50;;;;;;;9.20;6.37;;;;;;;19.55;84.58;98226.00;125436;1096;22970;-82
2021/07/27 02:47:17;;;;;;;8.03;6.15;;;;;;;19.54;84.51;98200.30;125413;1097;22761;-82
2021/07/27 02:49:44;;;;;;;10.18;6.63;;;;;;;19.51;84.31;98211.99;125419;1096;25921;-82
2021/07/27 02:52:11;;;;;;;8.28;6.53;;;;;;;19.53;84.53;98200.64;125423;1096;22866;-82
2021/07/27 02:54:39;;;;;;;10.20;6.47;;;;;;;19.53;84.75;98184.06;125414;1096;22930;-82
2021/07/27 02:57:05;;;;;;;11.23;7.03;;;;;;;19.53;84.66;98176.59;125462;1096;27186;-81
2021/07/27 02:59:32;;;;;;;8.93;6.63;;;;;;;19.53;85.01;98195.92;125463;1097;22828;-81
2021/07/27 03:01:59;;;;;;;11.75;7.03;;;;;;;19.58;85.13;98186.69;125542;1095;22949;-81
2021/07/27 03:04:26;;;;;;;10.40;6.90;;;;;;;19.60;84.97;98172.56;125468;1096;23522;-81
2021/07/27 03:06:52;;;;;;;9.48;6.28;;;;;;;19.62;84.90;98171.14;125479;1096;29165;-81
2021/07/27 03:09:54;;;;;;;8.63;6.90;;;;;;;19.64;84.83;98187.41;125455;1097;27017;-81
2021/07/27 03:12:35;;;;;;;9.90;7.10;;;;;;;19.57;84.47;98184.27;125450;1096;22831;-81
2021/07/27 03:15:03;;;;;;;11.20;7.48;;;;;;;19.53;84.66;98170.26;125416;1096;22776;-81
2021/07/27 03:17:30;;;;;;;9.00;6.70;;;;;;;19.50;84.99;98173.63;125467;1096;24157;-81
2021/07/27 03:19:57;;;;;;;8.03;6.53;;;;;;;19.49;85.21;98174.75;125436;1096;22803;-80
2021/07/27 03:22:24;;;;;;;8.23;6.55;;;;;;;19.46;85.37;98159.63;125408;1096;22777;-80
2021/07/27 03:24:51;;;;;;;9.98;6.65;;;;;;;19.47;85.33;98147.44;125461;1097;22779;-80
2021/07/27 03:27:18;;;;;;;10.03;7.03;;;;;;;19.46;85.05;98131.17;125549;1096;24581;-80
2021/07/27 03:29:44;;;;;;;9.38;7.10;;;;;;;19.44;85.16;98138.95;125544;1097;22758;-80
2021/07/27 03:32:11;;;;;;;9.48;7.05;;;;;;;19.44;85.48;98144.48;125467;1096;22796;-80
2021/07/27 03:34:38;;;;;;;10.80;7.33;;;;;;;19.48;85.34;98139.98;125476;1096;22807;-80
2021/07/27 03:37:05;;;;;;;8.95;6.85;;;;;;;19.51;85.23;98129.13;125457;1096;25884;-80
2021/07/27 03:39:49;;;;;;;9.37;7.10;;;;;;;19.54;85.24;98127.68;125434;1097;26302;-80
2021/07/27 03:42:16;;;;;;;8.73;7.30;;;;;;;19.56;85.46;98125.42;125469;1097;22777;-80
2021/07/27 03:44:43;;;;;;;10.18;7.38;;;;;;;19.56;85.31;98113.56;125504;1096;22803;-81
2021/07/27 03:47:09;;;;;;;14.35;7.58;;;;;;;19.53;85.50;98112.25;125446;1096;22828;-81
2021/07/27 03:49:51;;;;;;;11.33;7.17;;;;;;;19.52;85.53;98107.84;125504;1096;26271;-81
2021/07/27 03:52:18;;;;;;;9.98;6.80;;;;;;;19.52;85.74;98110.61;125438;1096;22786;-81
2021/07/27 03:54:45;;;;;;;9.48;7.03;;;;;;;19.51;85.83;98123.61;125418;1096;22938;-81
2021/07/27 03:57:12;;;;;;;8.23;7.20;;;;;;;19.51;85.57;98117.25;125419;1096;24425;-81
2021/07/27 03:59:53;;;;;;;8.13;6.63;;;;;;;19.48;85.83;98126.98;125406;1096;24425;-81
2021/07/27 04:02:20;;;;;;;10.23;7.80;;;;;;;19.47;85.95;98124.53;125512;1096;24421;-81
2021/07/27 04:04:47;;;;;;;11.65;8.00;;;;;;;19.43;86.01;98127.10;125420;1095;22780;-80
2021/07/27 04:07:17;;;;;;;9.25;7.90;;;;;;;19.40;86.10;98136.00;125463;1096;22944;-80
2021/07/27 04:10:00;;;;;;;11.53;7.40;;;;;;;19.44;86.51;98134.27;125430;1096;22780;-80
2021/07/27 04:12:27;;;;;;;11.43;7.00;;;;;;;19.53;86.54;98129.63;125489;1096;22769;-80
2021/07/27 04:14:53;;;;;;;9.18;6.95;;;;;;;19.62;86.59;98134.39;125408;1095;22807;-80
2021/07/27 04:17:21;;;;;;;9.55;7.63;;;;;;;19.65;86.24;98112.48;125407;1096;22800;-80
2021/07/27 04:19:49;;;;;;;10.23;7.90;;;;;;;19.65;86.01;98117.20;125535;1096;22669;-80
2021/07/27 04:22:16;;;;;;;11.00;7.50;;;;;;;19.62;86.01;98106.77;125483;1096;22938;-80
2021/07/27 04:24:42;;;;;;;10.37;6.57;;;;;;;19.59;86.10;98119.27;125524;1095;22938;-80
2021/07/27 04:27:09;;;;;;;8.80;6.93;;;;;;;19.61;86.45;98124.49;125421;1096;26261;-80
2021/07/27 04:29:36;;;;;;;9.80;6.27;;;;;;;19.67;86.51;98124.06;125396;1097;22796;-80
2021/07/27 04:32:04;;;;;;;9.25;6.80;;;;;;;19.73;86.58;98116.46;125428;1096;22935;-80
2021/07/27 04:34:30;;;;;;;9.45;6.98;;;;;;;19.76;86.47;98099.30;125456;1096;22815;-80
2021/07/27 04:36:57;;;;;;;11.98;7.15;;;;;;;19.77;86.47;98098.15;125474;1097;22970;-80
2021/07/27 04:39:28;;;;;;;9.58;6.78;;;;;;;19.79;86.89;98111.65;125877;1094;22934;-80
2021/07/27 04:41:55;;;;;;;10.05;6.50;;;;;;;19.86;86.88;98131.37;125536;1097;22765;-80
2021/07/27 04:44:39;;;;;;;10.08;7.55;;;;;;;19.92;86.84;98135.66;125497;1097;22778;-80
2021/07/27 04:47:22;;;;;;;11.73;7.85;;;;;;;20.00;86.79;98128.55;125413;1096;27507;-80
2021/07/27 04:50:07;;;;;;;9.17;7.07;;;;;;;20.08;86.62;98116.73;125412;1097;24555;-80
2021/07/27 04:52:59;;;;;;;12.48;7.75;;;;;;;20.15;86.70;98116.27;125481;1096;22838;-80
2021/07/27 04:55:26;;;;;;;12.05;8.83;;;;;;;20.20;86.47;98133.56;125416;1097;22784;-80
2021/07/27 04:58:07;;;;;;;18.20;9.05;;;;;;;20.25;86.49;98124.30;125375;1097;22867;-80
2021/07/27 05:00:34;;;;;;;11.57;8.60;;;;;;;20.32;86.31;98135.72;125378;1096;22804;-80
2021/07/27 05:03:01;;;;;;;12.33;9.00;;;;;;;20.37;85.74;98132.02;125518;1095;24441;-80
2021/07/27 05:05:28;;;;;;;12.25;9.23;;;;;;;20.33;85.60;98120.77;125513;1096;22807;-81
2021/07/27 05:07:54;;;;;;;15.40;8.95;;;;;;;20.34;85.83;98100.27;125546;1095;22777;-81
2021/07/27 05:10:21;;;;;;;12.87;8.40;;;;;;;20.34;85.74;98089.20;125439;1096;22907;-80
2021/07/27 05:12:48;;;;;;;11.98;8.10;;;;;;;20.37;85.93;98096.87;125502;1096;22780;-80
2021/07/27 05:15:15;;;;;;;15.25;7.83;;;;;;;20.44;85.83;98099.18;125413;1096;22780;-80
2021/07/27 05:17:42;;;;;;;8.40;7.47;;;;;;;20.52;85.75;98103.11;125519;1096;25828;-80
2021/07/27 05:20:10;;;;;;;10.50;8.40;;;;;;;20.56;85.23;98093.86;125456;1097;27351;-80
2021/07/27 05:22:37;;;;;;;13.03;8.83;;;;;;;20.60;85.36;98083.77;125401;1096;22938;-80
2021/07/27 05:25:05;;;;;;;10.65;7.93;;;;;;;20.63;85.51;98080.41;125412;1096;25887;-80
2021/07/27 05:27:36;;;;;;;13.40;7.83;;;;;;;20.65;84.80;98091.97;125535;1096;22837;-80
2021/07/27 05:30:04;;;;;;;8.45;7.50;;;;;;;20.57;84.58;98101.01;125473;1095;23695;-80
2021/07/27 05:32:31;;;;;;;13.23;8.08;;;;;;;20.51;84.94;98091.23;125501;1096;25963;-80
2021/07/27 05:34:58;;;;;;;12.90;8.20;;;;;;;20.47;84.93;98098.55;125482;1096;22922;-80
2021/07/27 05:37:39;;;;;;;12.93;8.53;;;;;;;20.41;85.24;98095.09;125357;1097;22770;-80
2021/07/27 05:40:07;;;;;;;9.38;7.58;;;;;;;20.39;85.34;98102.08;125690;1096;27204;-80
2021/07/27 05:42:48;;;;;;;9.88;8.28;;;;;;;20.35;84.91;98117.69;125848;1096;23671;-80
2021/07/27 05:45:15;;;;;;;8.58;7.40;;;;;;;20.37;85.82;98118.99;125745;1097;27434;-80
2021/07/27 05:47:42;;;;;;;10.38;7.90;;;;;;;20.39;86.12;98127.78;125666;1096;22800;-82
2021/07/27 05:50:10;;;;;;;10.08;7.93;;;;;;;20.42;86.02;98126.34;125726;1095;22777;-81
2021/07/27 05:52:37;;;;;;;11.60;7.05;;;;;;;20.44;86.13;98130.41;125834;1096;22807;-81
2021/07/27 05:55:04;;;;;;;8.78;6.73;;;;;;;20.52;85.30;98130.77;125760;1097;22963;-81
2021/07/27 05:57:31;;;;;;;7.55;6.83;;;;;;;20.57;85.53;98136.97;125720;1096;22862;-81
2021/07/27 05:59:58;;;;;;;10.88;7.50;;;;;;;20.62;85.25;98131.33;125762;1095;22789;-81
2021/07/27 06:02:25;;;;;;;11.80;7.18;;;;;;;20.71;85.08;98130.56;125713;1096;22790;-81
2021/07/27 06:04:52;;;;;;;10.03;6.88;;;;;;;20.81;84.78;98127.52;125731;1097;22807;-81
2021/07/27 06:07:19;;;;;;;10.13;6.73;;;;;;;20.95;84.35;98133.73;125856;1096;26451;-81
2021/07/27 06:10:00;;;;;;;9.28;5.80;;;;;;;21.16;84.27;98135.88;125707;1096;25887;-81
2021/07/27 06:12:27;;;;;;;9.60;7.28;;;;;;;21.26;83.89;98141.13;125704;1096;27940;-81
2021/07/27 06:14:54;;;;;;;9.70;6.68;;;;;;;21.34;84.02;98156.95;125771;1096;22874;-81
2021/07/27 06:17:22;;;;;;;9.03;6.38;;;;;;;21.40;84.71;98158.41;125697;1096;22810;-81
2021/07/27 06:19:50;;;;;;;9.93;6.30;;;;;;;21.44;84.50;98169.66;125839;1096;26468;-81
2021/07/27 06:22:17;;;;;;;7.40;5.40;;;;;;;21.51;84.02;98180.30;125726;1096;22861;-81
2021/07/27 06:24:44;;;;;;;6.98;5.73;;;;;;;21.55;82.40;98189.62;125701;1097;22796;-80
2021/07/27 06:27:11;;;;;;;7.73;5.93;;;;;;;21.58;82.13;98188.95;125702;1096;22910;-81
2021/07/27 06:29:38;;;;;;;8.13;6.13;;;;;;;21.57;82.81;98190.11;125717;1096;27214;-81
2021/07/27 06:32:05;;;;;;;8.63;6.60;;;;;;;21.58;82.35;98180.63;125747;1096;22864;-81
2021/07/27 06:34:32;;;;;;;7.70;5.68;;;;;;;21.60;81.79;98186.66;125746;1096;26258;-81
2021/07/27 06:36:59;;;;;;;9.38;5.93;;;;;;;21.61;81.87;98196.63;125881;1096;22935;-80
2021/07/27 06:39:28;;;;;;;8.60;6.38;;;;;;;21.60;81.67;98192.20;125670;1096;22811;-80
2021/07/27 06:41:55;;;;;;;10.70;6.58;;;;;;;21.63;81.84;98196.30;125816;1096;22800;-81
2021/07/27 06:44:23;;;;;;;8.05;6.43;;;;;;;21.67;82.18;98202.81;125729;1096;22850;-80
2021/07/27 06:46:49;;;;;;;9.10;5.90;;;;;;;21.69;82.50;98198.59;125827;1096;22800;-81
2021/07/27 06:49:31;;;;;;;9.23;5.48;;;;;;;21.66;81.64;98215.86;125800;1096;22934;-81
2021/07/27 06:51:58;;;;;;;8.50;5.57;;;;;;;21.61;81.50;98207.70;125776;1097;22768;-81
2021/07/27 06:54:24;;;;;;;6.75;4.98;;;;;;;21.58;80.67;98211.95;125853;1096;22777;-81
2021/07/27 06:56:55;;;;;;;7.63;5.80;;;;;;;21.53;80.48;98206.56;125773;1096;23713;-81
2021/07/27 06:59:23;;;;;;;6.53;5.50;;;;;;;21.47;80.23;98218.12;125817;1096;22800;-80
2021/07/27 07:01:51;;;;;;;8.85;6.10;;;;;;;21.42;80.76;98216.27;125881;1096;23133;-80
2021/07/27 07:04:18;;;;;;;12.30;6.20;;;;;;;21.40;82.07;98218.55;125844;1096;22780;-81
2021/07/27 07:06:45;;;;;;;7.28;5.48;;;;;;;21.34;81.46;98228.97;125608;1096;24428;-81
2021/07/27 07:09:12;;;;;;;9.05;5.63;;;;;;;21.28;81.81;98227.47;125706;1096;22935;-81
2021/07/27 07:11:39;;;;;;;7.78;6.40;;;;;;;21.23;82.37;98233.19;125863;1096;25996;-81
2021/07/27 07:14:20;;;;;;;9.88;6.70;;;;;;;21.16;82.37;98238.34;125742;1096;22807;-81
2021/07/27 07:17:02;;;;;;;9.55;7.70;;;;;;;21.11;81.99;98236.56;125776;1096;22838;-81
2021/07/27 07:19:28;;;;;;;12.25;8.83;;;;;;;21.09;82.41;98243.53;125812;1096;27354;-80
2021/07/27 07:21:55;;;;;;;9.43;7.80;;;;;;;21.08;82.36;98239.15;125765;1096;22938;-81
2021/07/27 07:24:23;;;;;;;9.83;7.97;;;;;;;21.04;82.63;98244.52;125764;1096;22804;-80
2021/07/27 07:27:05;;;;;;;13.30;7.95;;;;;;;21.02;82.69;98242.05;125774;1096;22804;-81
2021/07/27 07:29:32;;;;;;;12.78;8.98;;;;;;;21.01;82.63;98251.48;125730;1097;28488;-81
2021/07/27 07:31:58;;;;;;;14.40;8.90;;;;;;;21.00;83.04;98240.73;125761;1095;22782;-81
2021/07/27 07:34:40;;;;;;;11.65;8.70;;;;;;;21.02;82.46;98249.55;125782;1096;22832;-81
2021/07/27 07:37:08;;;;;;;15.70;10.23;;;;;;;21.04;82.37;98255.59;125756;1096;24174;-81
2021/07/27 07:39:35;;;;;;;14.70;9.90;;;;;;;21.16;82.86;98257.73;126043;1096;22820;-81
2021/07/27 07:42:04;;;;;;;15.60;10.25;;;;;;;21.28;82.79;98259.91;125845;1096;22908;-81
2021/07/27 07:44:34;;;;;;;12.70;8.78;;;;;;;21.45;82.98;98267.47;125756;1095;24605;-81
2021/07/27 07:47:01;;;;;;;15.40;9.65;;;;;;;21.61;83.11;98268.67;125842;1096;22773;-81
2021/07/27 07:49:28;;;;;;;18.88;11.10;;;;;;;21.79;82.65;98272.29;125832;1096;27233;-81
2021/07/27 07:51:56;;;;;;;16.73;10.65;;;;;;;21.92;82.04;98273.28;125721;1096;22780;-81
2021/07/27 07:54:27;;;;;;;14.40;9.50;;;;;;;22.02;81.58;98275.73;125872;1096;22919;-81
2021/07/27 07:57:08;;;;;;;13.40;10.15;;;;;;;22.13;81.24;98279.84;125542;1096;22803;-81
2021/07/27 07:59:35;;;;;;;14.63;10.00;;;;;;;22.23;81.22;98266.78;125396;1096;22794;-81
2021/07/27 08:02:02;;;;;;;13.43;9.80;;;;;;;22.33;80.84;98269.27;125386;1096;27342;-81
2021/07/27 08:04:29;;;;;;;12.75;9.75;;;;;;;22.39;79.92;98256.84;125437;1096;22785;-81
2021/07/27 08:06:55;;;;;;;13.90;10.23;;;;;;;22.42;79.60;98258.16;125722;1096;22813;-81
2021/07/27 08:09:22;;;;;;;16.63;10.73;;;;;;;22.51;79.81;98256.98;125469;1095;24578;-81
2021/07/27 08:11:49;;;;;;;17.40;10.18;;;;;;;22.58;79.27;98250.94;125480;1096;22863;-81
2021/07/27 08:14:16;;;;;;;19.55;10.43;;;;;;;22.64;79.22;98255.16;125398;1097;22800;-81
2021/07/27 08:16:43;;;;;;;16.48;10.55;;;;;;;22.73;78.92;98250.42;125491;1096;26296;-81
2021/07/27 08:19:10;;;;;;;15.98;10.68;;;;;;;22.83;79.13;98265.90;125428;1096;22819;-81
2021/07/27 08:21:37;;;;;;;14.57;10.00;;;;;;;22.93;78.97;98261.97;125499;1096;27377;-81
2021/07/27 08:24:04;;;;;;;17.00;10.58;;;;;;;23.09;79.00;98274.19;125614;1096;24174;-81
2021/07/27 08:26:31;;;;;;;18.87;10.83;;;;;;;23.28;78.79;98279.34;126186;1095;27272;-82
2021/07/27 08:28:57;;;;;;;16.15;10.55;;;;;;;23.47;78.16;98275.33;125845;1096;22828;-82
2021/07/27 08:31:24;;;;;;;13.60;10.00;;;;;;;23.61;77.12;98263.97;125982;1096;22779;-82
2021/07/27 08:33:51;;;;;;;14.58;10.08;;;;;;;23.77;77.34;98273.34;126072;1096;22937;-82
2021/07/27 08:36:18;;;;;;;14.23;10.50;;;;;;;23.91;76.86;98278.69;126072;1096;27558;-81
2021/07/27 08:38:51;;;;;;;19.28;10.30;;;;;;;24.04;76.30;98276.79;125733;1096;22782;-81
2021/07/27 08:41:42;;;;;;;16.73;10.60;;;;;;;24.15;75.41;98286.38;125495;1096;26274;-81
2021/07/27 08:44:19;;;;;;;11.28;9.83;;;;;;;24.22;74.88;98288.59;125502;1095;22804;-81
2021/07/27 08:46:47;;;;;;;14.80;10.03;;;;;;;24.33;74.51;98297.34;125526;1096;22807;-81
2021/07/27 08:49:15;;;;;;;16.67;9.87;;;;;;;24.42;73.93;98292.54;125413;1096;22829;-81
2021/07/27 08:51:44;;;;;;;13.53;9.73;;;;;;;24.53;73.98;98296.55;125684;1096;22784;-81
2021/07/27 08:54:15;;;;;;;12.40;10.23;;;;;;;24.53;72.36;98295.72;126217;1096;27634;-82
2021/07/27 08:56:46;;;;;;;16.05;9.70;;;;;;;24.58;73.33;98293.56;125849;1097;22597;-81
2021/07/27 08:59:14;;;;;;;17.77;9.60;;;;;;;24.72;73.14;98296.05;126037;1096;26292;-82
2021/07/27 09:01:41;;;;;;;12.45;8.93;;;;;;;24.93;73.29;98297.95;126066;1096;26424;-82
2021/07/27 09:04:07;;;;;;;14.87;9.53;;;;;;;25.15;72.59;98305.91;126043;1096;22797;-82
2021/07/27 09:06:35;;;;;;;12.97;9.17;;;;;;;25.27;71.45;98307.10;125860;1095;22800;-82
2021/07/27 09:09:09;;;;;;;14.53;9.70;;;;;;;25.34;71.68;98313.75;126051;1097;22776;-82
2021/07/27 09:11:50;;;;;;;14.00;9.48;;;;;;;25.40;70.60;98303.19;125503;1095;22935;-82
2021/07/27 09:14:21;;;;;;;17.67;9.17;;;;;;;25.46;70.96;98310.17;126012;1097;27548;-82
2021/07/27 09:16:52;;;;;;;13.73;9.60;;;;;;;25.56;70.17;98317.25;125484;1095;22806;-82
2021/07/27 09:19:22;;;;;;;10.87;8.57;;;;;;;25.51;69.04;98312.70;126048;1096;22811;-82
2021/07/27 09:22:04;;;;;;;14.83;10.03;;;;;;;25.51;69.27;98321.06;126116;1096;22886;-82
2021/07/27 09:24:37;;;;;;;15.45;9.43;;;;;;;25.61;69.25;98313.43;125645;1096;23063;-82
2021/07/27 09:27:09;;;;;;;10.75;8.20;;;;;;;25.65;69.23;98317.14;125772;1096;22780;-82
2021/07/27 09:29:46;;;;;;;13.37;9.73;;;;;;;25.59;68.42;98322.14;125565;1097;22832;-82
2021/07/27 09:32:29;;;;;;;13.40;9.35;;;;;;;25.43;68.86;98310.86;125465;1096;22780;-82
2021/07/27 09:35:04;;;;;;;12.33;9.33;;;;;;;25.38;69.15;98311.09;125488;1096;22813;-82
2021/07/27 09:37:32;;;;;;;12.28;9.35;;;;;;;25.42;69.36;98314.80;125634;1096;22858;-82
2021/07/27 09:40:09;;;;;;;14.38;9.38;;;;;;;25.44;68.52;98320.03;125636;1096;22803;-82
2021/07/27 09:42:40;;;;;;;10.88;7.68;;;;;;;25.35;67.24;98323.73;125493;1096;26274;-82
2021/07/27 09:45:08;;;;;;;11.08;8.50;;;;;;;25.20;67.44;98322.41;125493;1097;22786;-83
2021/07/27 09:47:36;;;;;;;13.18;8.68;;;;;;;25.09;66.66;98325.97;125539;1096;22761;-82
2021/07/27 09:50:18;;;;;;;11.13;8.35;;;;;;;24.96;67.44;98344.63;125461;1096;22790;-82
2021/07/27 09:52:51;;;;;;;12.10;8.65;;;;;;;24.97;67.58;98329.56;125494;1096;22786;-83
2021/07/27 09:55:28;;;;;;;9.38;8.48;;;;;;;25.01;67.52;98336.06;125453;1096;22937;-82
2021/07/27 09:57:55;;;;;;;11.67;9.20;;;;;;;25.05;67.76;98330.61;126012;1096;22610;-82
2021/07/27 10:00:25;;;;;;;13.35;9.40;;;;;;;25.13;67.91;98333.31;125544;1096;27269;-82
2021/07/27 10:02:57;;;;;;;14.07;9.93;;;;;;;25.26;68.09;98325.00;125491;1096;22782;-82
2021/07/27 10:05:29;;;;;;;15.55;10.75;;;;;;;25.50;67.77;98324.23;125658;1096;26384;-81
2021/07/27 10:07:59;;;;;;;14.25;9.98;;;;;;;25.56;67.30;98329.20;125625;1097;22920;-82
2021/07/27 10:10:46;;;;;;;13.03;9.83;;;;;;;25.56;66.48;98329.20;125748;1097;26268;-82
2021/07/27 10:13:16;;;;;;;14.50;10.10;;;;;;;25.59;67.13;98341.66;125975;1095;24485;-82
2021/07/27 10:15:47;;;;;;;14.70;10.55;;;;;;;25.66;66.48;98341.09;125650;1096;22899;-82
2021/07/27 10:18:29;;;;;;;13.63;10.85;;;;;;;25.82;67.10;98338.41;125640;1096;22788;-82
2021/07/27 10:21:22;;;;;;;13.13;10.60;;;;;;;25.88;67.05;98337.00;125532;1096;26268;-81
2021/07/27 10:24:12;;;;;;;12.25;9.93;;;;;;;26.08;66.75;98326.89;125565;1096;27205;-82
2021/07/27 10:26:41;;;;;;;17.00;10.35;;;;;;;26.47;66.89;98328.09;125959;1096;22759;-82
2021/07/27 10:29:09;;;;;;;11.70;10.50;;;;;;;26.69;64.04;98325.94;125502;1096;26325;-82
2021/07/27 10:31:42;;;;;;;12.45;10.23;;;;;;;26.69;64.56;98331.53;125513;1096;22836;-81
2021/07/27 10:34:11;;;;;;;13.38;10.20;;;;;;;26.69;64.04;98334.32;125980;1096;22767;-81
2021/07/27 10:36:47;;;;;;;14.15;11.08;;;;;;;26.61;63.57;98332.45;126086;1096;22780;-82
2021/07/27 10:39:20;;;;;;;12.50;10.00;;;;;;;26.66;65.34;98335.83;126043;1096;22870;-82
2021/07/27 10:41:49;;;;;;;17.58;11.33;;;;;;;26.62;65.22;98323.75;125544;1097;22774;-82
2021/07/27 10:44:23;;;;;;;18.10;11.60;;;;;;;26.69;64.72;98323.95;125992;1096;22834;-82
2021/07/27 10:46:53;;;;;;;13.88;10.48;;;;;;;26.92;65.51;98319.79;126010;1096;22794;-82
2021/07/27 10:49:22;;;;;;;11.20;9.95;;;;;;;27.16;63.46;98324.41;126033;1096;22773;-82
2021/07/27 10:51:59;;;;;;;28.60;12.68;;;;;;;27.24;61.10;98318.65;126057;1096;22931;-81
2021/07/27 10:54:31;;;;;;;13.58;10.40;;;;;;;27.28;60.87;98319.58;125501;1097;22770;-81
2021/07/27 10:57:06;;;;;;;18.45;11.05;;;;;;;27.44;61.40;98305.59;125594;1096;27167;-82
2021/07/27 10:59:35;;;;;;;14.10;10.93;;;;;;;27.68;61.78;98314.19;125535;1096;22928;-81
2021/07/27 11:02:15;;;;;;;16.10;11.67;;;;;;;27.83;59.89;98314.16;126073;1096;23303;-82
2021/07/27 11:04:57;;;;;;;13.57;10.87;;;;;;;28.11;60.99;98318.01;126004;1096;22718;-81
2021/07/27 11:07:38;;;;;;;14.30;12.00;;;;;;;28.33;59.92;98317.31;125599;1096;22767;-81
2021/07/27 11:10:06;;;;;;;14.48;11.35;;;;;;;28.59;60.05;98315.86;125997;1096;27195;-82
2021/07/27 11:12:35;;;;;;;13.83;12.10;;;;;;;28.84;59.27;98312.75;125515;1096;22925;-81
2021/07/27 11:15:10;;;;;;;13.10;11.80;;;;;;;29.04;59.73;98322.77;126025;1096;23711;-81
2021/07/27 11:17:52;;;;;;;14.80;11.35;;;;;;;29.23;58.07;98319.12;125557;1096;23213;-82
2021/07/27 11:20:20;;;;;;;12.83;11.30;;;;;;;29.38;57.42;98308.17;125955;1096;22773;-81
2021/07/27 11:22:54;;;;;;;13.00;11.80;;;;;;;29.50;56.97;98300.37;125482;1096;27349;-81
2021/07/27 11:25:23;;;;;;;16.05;11.68;;;;;;;29.63;57.27;98294.55;125979;1096;23670;-82
2021/07/27 11:27:57;;;;;;;12.80;11.55;;;;;;;29.64;56.09;98285.77;125984;1096;22797;-82
2021/07/27 11:30:41;;;;;;;27.60;12.70;;;;;;;29.70;56.34;98287.05;126045;1096;22771;-82
2021/07/27 11:33:13;;;;;;;12.30;10.90;;;;;;;29.79;54.76;98283.20;125483;1096;26334;-82
2021/07/27 11:35:45;;;;;;;12.73;10.30;;;;;;;29.84;53.65;98280.88;125958;1096;22821;-82
2021/07/27 11:38:22;;;;;;;14.48;10.88;;;;;;;29.95;54.28;98275.41;126045;1095;22928;-82
2021/07/27 11:40:51;;;;;;;12.45;11.10;;;;;;;30.08;54.90;98284.41;125486;1096;22950;-82
2021/07/27 11:43:33;;;;;;;13.13;11.78;;;;;;;30.12;54.36;98278.84;126043;1096;22797;-82
2021/07/27 11:46:12;;;;;;;14.90;10.95;;;;;;;29.89;53.07;98276.95;125962;1096;22800;-82
2021/07/27 11:48:41;;;;;;;10.05;9.05;;;;;;;29.82;51.46;98282.42;126017;1096;24687;-82
2021/07/27 11:51:08;;;;;;;9.88;8.88;;;;;;;29.81;51.78;98267.59;126126;1096;23516;-82
2021/07/27 11:53:55;;;;;;;10.20;9.13;;;;;;;29.79;52.54;98272.78;126080;1096;22890;-82
2021/07/27 11:56:23;;;;;;;10.43;9.35;;;;;;;29.86;51.96;98281.30;126036;1096;22800;-81